Weather at Nyby Private Airstrip

Public forecast

Using degrees Celsius for public forecast. Weather courtesy of forecast.io.

Closest aviation weather report (METAR) to Nyby Private Airstrip

Closest report is Stockholm Västerås Airport, 18.2 nm (33.6 km) SSE. Retrieved 2022/01/17 15:20 UTC (4 minutes ago):

ESOW 171520Z 26005KT CAVOK 00/M07 Q1013

Closest aviation forecast (TAF) to Nyby Private Airstrip

Forecast is more than 12 hours old.

Closest forecast is Stockholm Västerås Airport, 18.2 nm (33.6 km) SSE. Retrieved 2021-06-01 03:36 UTC (8 months ago):

TAF TAF ESOW 190230Z 1903/1915 27005KT CAVOK